Wetterdaten: Woche 04.01.10 - 10.01.10 (KW1)
Datum Zeit Temperatur Luftfeuchte Luftdruck Niederschlag Wind Richtung Sonnenschein Solar Taupunkt Windchill Windben
04.01.2010 00:00 -6.9 C 86 % 1019.4 hPa 0.0 l/m 0.0 km/h (0 Bft) N 0.00 h 0 W/m -8.8 C -6.9 C 0.2 km/h (0 Bft)
04.01.2010 01:00 -7.4 C 87 % 1018.9 hPa 0.0 l/m 0.0 km/h (0 Bft) S 0.00 h 0 W/m -9.2 C -7.4 C 0.2 km/h (0 Bft)
04.01.2010 02:00 -7.7 C 87 % 1018.3 hPa 0.0 l/m 0.1 km/h (0 Bft) S 0.00 h 0 W/m -9.4 C -7.7 C 0.4 km/h (0 Bft)
04.01.2010 03:00 -8.1 C 88 % 1017.8 hPa 0.0 l/m 0.4 km/h (0 Bft) S 0.00 h 0 W/m -9.7 C -8.1 C 1.3 km/h (1 Bft)
04.01.2010 04:00 -8.4 C 88 % 1017.6 hPa 0.0 l/m 0.0 km/h (0 Bft) S 0.00 h 0 W/m -10.0 C -8.4 C 0.4 km/h (0 Bft)
04.01.2010 05:00 -8.7 C 88 % 1017.3 hPa 0.0 l/m 0.0 km/h (0 Bft) S 0.00 h 0 W/m -10.3 C -8.7 C 0.3 km/h (0 Bft)
04.01.2010 06:00 -8.9 C 88 % 1017.3 hPa 0.0 l/m 0.1 km/h (0 Bft) S 0.00 h 0 W/m -10.6 C -8.9 C 0.3 km/h (0 Bft)
04.01.2010 07:00 -9.2 C 87 % 1017.5 hPa 0.0 l/m 0.1 km/h (0 Bft) S 0.00 h 0 W/m -10.9 C -9.2 C 0.5 km/h (0 Bft)
04.01.2010 08:00 -9.2 C 87 % 1017.3 hPa 0.0 l/m 0.0 km/h (0 Bft) N 0.05 h 15 W/m -11.0 C -9.2 C 0.0 km/h (0 Bft)
04.01.2010 09:00 -8.9 C 88 % 1017.5 hPa 0.0 l/m 0.1 km/h (0 Bft) S 0.12 h 50 W/m -10.6 C -8.9 C 0.7 km/h (0 Bft)
04.01.2010 10:00 -7.9 C 88 % 1017.4 hPa 0.0 l/m 0.5 km/h (0 Bft) S 0.00 h 49 W/m -9.6 C -7.9 C 1.8 km/h (1 Bft)
04.01.2010 11:00 -6.4 C 88 % 1016.8 hPa 0.0 l/m 0.8 km/h (0 Bft) S 0.92 h 230 W/m -8.0 C -6.4 C 2.4 km/h (1 Bft)
04.01.2010 12:00 -4.1 C 85 % 1015.6 hPa 0.0 l/m 0.9 km/h (0 Bft) S 1.00 h 279 W/m -6.2 C -4.1 C 2.5 km/h (1 Bft)
04.01.2010 13:00 -2.8 C 78 % 1014.8 hPa 0.0 l/m 1.7 km/h (1 Bft) SW 0.98 h 238 W/m -6.1 C -2.8 C 3.6 km/h (1 Bft)
04.01.2010 14:00 -1.6 C 72 % 1014.0 hPa 0.0 l/m 2.3 km/h (1 Bft) SW 0.77 h 173 W/m -5.9 C -1.8 C 4.3 km/h (1 Bft)
04.01.2010 15:00 -1.1 C 69 % 1013.6 hPa 0.0 l/m 0.7 km/h (0 Bft) NW 0.92 h 99 W/m -6.1 C -1.1 C 2.0 km/h (1 Bft)
04.01.2010 16:00 -1.3 C 66 % 1013.6 hPa 0.0 l/m 3.2 km/h (1 Bft) O-SO 0.12 h 22 W/m -6.9 C -2.1 C 4.6 km/h (1 Bft)
04.01.2010 17:00 -3.4 C 70 % 1013.9 hPa 0.0 l/m 3.0 km/h (1 Bft) O-SO 0.00 h 0 W/m -8.1 C -3.9 C 4.4 km/h (1 Bft)
04.01.2010 18:00 -4.0 C 73 % 1014.0 hPa 0.0 l/m 1.6 km/h (1 Bft) N-NW 0.00 h 0 W/m -8.2 C -4.3 C 3.4 km/h (1 Bft)
04.01.2010 19:00 -4.6 C 80 % 1014.3 hPa 0.0 l/m 3.0 km/h (1 Bft) N 0.00 h 0 W/m -7.5 C -5.1 C 5.9 km/h (2 Bft)
04.01.2010 20:00 -5.1 C 84 % 1014.3 hPa 0.0 l/m 1.8 km/h (1 Bft) N 0.00 h 0 W/m -7.5 C -5.2 C 3.4 km/h (1 Bft)
04.01.2010 21:00 -6.2 C 84 % 1014.0 hPa 0.0 l/m 0.6 km/h (0 Bft) O-NO 0.00 h 0 W/m -8.4 C -6.2 C 1.7 km/h (1 Bft)
04.01.2010 22:00 -6.7 C 85 % 1013.9 hPa 0.0 l/m 0.1 km/h (0 Bft) O-NO 0.00 h 0 W/m -8.8 C -6.7 C 0.5 km/h (0 Bft)
04.01.2010 23:00 -6.8 C 85 % 1013.2 hPa 0.0 l/m 0.2 km/h (0 Bft) O-NO 0.00 h 0 W/m -8.8 C -6.8 C 1.0 km/h (0 Bft)
05.01.2010 00:00 -7.4 C 85 % 1012.7 hPa 0.0 l/m 2.4 km/h (1 Bft) O-SO 0.00 h 0 W/m -9.5 C -8.1 C 3.6 km/h (1 Bft)
05.01.2010 01:00 -8.0 C 86 % 1012.0 hPa 0.0 l/m 0.1 km/h (0 Bft) O-SO 0.00 h 0 W/m -9.9 C -8.0 C 0.3 km/h (0 Bft)
05.01.2010 02:00 -8.3 C 86 % 1011.8 hPa 0.0 l/m 0.2 km/h (0 Bft) O-SO 0.00 h 0 W/m -10.2 C -8.3 C 0.6 km/h (0 Bft)
05.01.2010 03:00 -8.6 C 87 % 1011.2 hPa 0.0 l/m 0.1 km/h (0 Bft) O-SO 0.00 h 0 W/m -10.4 C -8.6 C 0.2 km/h (0 Bft)
05.01.2010 04:00 -8.8 C 87 % 1010.7 hPa 0.0 l/m 0.0 km/h (0 Bft) N 0.00 h 0 W/m -10.5 C -8.8 C 0.2 km/h (0 Bft)
05.01.2010 05:00 -8.8 C 87 % 1010.2 hPa 0.0 l/m 0.0 km/h (0 Bft) O-SO 0.00 h 0 W/m -10.5 C -8.8 C 0.1 km/h (0 Bft)
05.01.2010 06:00 -8.6 C 88 % 1009.5 hPa 0.0 l/m 0.1 km/h (0 Bft) O-SO 0.00 h 0 W/m -10.2 C -8.6 C 0.8 km/h (0 Bft)
05.01.2010 07:00 -7.8 C 89 % 1008.9 hPa 0.0 l/m 0.3 km/h (0 Bft) O-SO 0.00 h 0 W/m -9.3 C -7.8 C 1.0 km/h (0 Bft)
05.01.2010 08:00 -7.4 C 89 % 1008.6 hPa 0.0 l/m 0.2 km/h (0 Bft) O-SO 0.00 h 14 W/m -8.9 C -7.4 C 1.2 km/h (1 Bft)
05.01.2010 09:00 -6.9 C 89 % 1008.5 hPa 0.0 l/m 0.0 km/h (0 Bft) N 0.00 h 31 W/m -8.4 C -6.9 C 0.3 km/h (0 Bft)
05.01.2010 10:00 -5.8 C 89 % 1008.0 hPa 0.0 l/m 0.3 km/h (0 Bft) O-SO 0.00 h 93 W/m -7.3 C -5.8 C 0.8 km/h (0 Bft)
05.01.2010 11:00 -4.4 C 84 % 1007.1 hPa 0.0 l/m 1.9 km/h (1 Bft) O 0.42 h 150 W/m -6.7 C -4.5 C 4.7 km/h (1 Bft)
05.01.2010 12:00 -3.7 C 79 % 1006.3 hPa 0.0 l/m 0.9 km/h (0 Bft) O-NO 0.00 h 94 W/m -6.8 C -3.7 C 2.8 km/h (1 Bft)
05.01.2010 13:00 -3.4 C 78 % 1005.5 hPa 0.0 l/m 4.1 km/h (1 Bft) O-SO 0.00 h 131 W/m -6.8 C -4.7 C 6.8 km/h (2 Bft)
05.01.2010 14:00 -3.3 C 77 % 1004.7 hPa 0.0 l/m 5.0 km/h (1 Bft) O-SO 0.00 h 105 W/m -6.7 C -5.0 C 7.9 km/h (2 Bft)
05.01.2010 15:00 -3.3 C 77 % 1004.4 hPa 0.0 l/m 4.7 km/h (1 Bft) O-SO 0.00 h 58 W/m -6.8 C -4.8 C 7.6 km/h (2 Bft)
05.01.2010 16:00 -3.5 C 77 % 1004.2 hPa 0.0 l/m 4.0 km/h (1 Bft) O-SO 0.03 h 19 W/m -6.9 C -4.6 C 6.8 km/h (2 Bft)
05.01.2010 17:00 -3.7 C 78 % 1004.1 hPa 0.0 l/m 0.5 km/h (0 Bft) O 0.00 h 0 W/m -7.0 C -3.7 C 1.9 km/h (1 Bft)
05.01.2010 18:00 -3.8 C 78 % 1003.8 hPa 0.0 l/m 0.5 km/h (0 Bft) O 0.00 h 0 W/m -7.0 C -3.8 C 2.2 km/h (1 Bft)
05.01.2010 19:00 -3.9 C 78 % 1003.4 hPa 0.0 l/m 0.7 km/h (0 Bft) O 0.00 h 0 W/m -7.1 C -3.9 C 2.7 km/h (1 Bft)
05.01.2010 20:00 -4.0 C 78 % 1003.2 hPa 0.0 l/m 0.8 km/h (0 Bft) O-SO 0.00 h 0 W/m -7.3 C -4.2 C 1.9 km/h (1 Bft)
05.01.2010 21:00 -4.1 C 78 % 1002.8 hPa 0.0 l/m 0.8 km/h (0 Bft) O 0.00 h 0 W/m -7.3 C -4.1 C 2.6 km/h (1 Bft)
05.01.2010 22:00 -4.1 C 79 % 1002.3 hPa 0.0 l/m 0.4 km/h (0 Bft) O 0.00 h 0 W/m -7.2 C -4.1 C 1.2 km/h (1 Bft)
05.01.2010 23:00 -4.0 C 80 % 1002.0 hPa 0.0 l/m 0.9 km/h (0 Bft) NO 0.00 h 0 W/m -7.0 C -4.0 C 2.8 km/h (1 Bft)
06.01.2010 00:00 -4.0 C 81 % 1001.6 hPa 0.0 l/m 0.6 km/h (0 Bft) O 0.00 h 0 W/m -6.8 C -4.0 C 2.4 km/h (1 Bft)
06.01.2010 01:00 -4.2 C 83 % 1001.4 hPa 0.0 l/m 0.4 km/h (0 Bft) O 0.00 h 0 W/m -6.7 C -4.2 C 1.8 km/h (1 Bft)
06.01.2010 02:00 -4.2 C 84 % 1001.3 hPa 0.0 l/m 0.1 km/h (0 Bft) O 0.00 h 0 W/m -6.5 C -4.2 C 0.9 km/h (0 Bft)
06.01.2010 03:00 -4.2 C 84 % 1001.3 hPa 0.0 l/m 0.3 km/h (0 Bft) NO 0.00 h 0 W/m -6.5 C -4.2 C 1.3 km/h (1 Bft)
06.01.2010 04:00 -4.1 C 84 % 1001.4 hPa 0.0 l/m 0.2 km/h (0 Bft) O-NO 0.00 h 0 W/m -6.4 C -4.1 C 0.9 km/h (0 Bft)
06.01.2010 05:00 -4.1 C 85 % 1001.3 hPa 0.0 l/m 0.3 km/h (0 Bft) O-NO 0.00 h 0 W/m -6.2 C -4.1 C 0.9 km/h (0 Bft)
06.01.2010 06:00 -4.2 C 86 % 1001.5 hPa 0.0 l/m 0.7 km/h (0 Bft) W-NW 0.00 h 0 W/m -6.1 C -4.2 C 1.7 km/h (1 Bft)
06.01.2010 07:00 -4.1 C 87 % 1001.7 hPa 0.0 l/m 0.6 km/h (0 Bft) SO 0.00 h 0 W/m -5.9 C -4.1 C 1.6 km/h (1 Bft)
06.01.2010 08:00 -3.6 C 87 % 1002.0 hPa 0.0 l/m 2.0 km/h (1 Bft) SO 0.00 h 6 W/m -5.5 C -3.8 C 3.6 km/h (1 Bft)
06.01.2010 09:00 -2.9 C 85 % 1002.6 hPa 0.0 l/m 3.7 km/h (1 Bft) W 0.00 h 12 W/m -5.1 C -3.8 C 6.6 km/h (2 Bft)
06.01.2010 10:00 -2.4 C 85 % 1003.0 hPa 0.0 l/m 3.0 km/h (1 Bft) SW 0.00 h 48 W/m -4.6 C -2.6 C 5.3 km/h (1 Bft)
06.01.2010 11:00 -1.9 C 84 % 1002.8 hPa 0.2 l/m 3.4 km/h (1 Bft) W-SW 0.00 h 102 W/m -4.3 C -2.5 C 6.2 km/h (2 Bft)
06.01.2010 12:00 -1.5 C 80 % 1002.4 hPa 0.0 l/m 6.4 km/h (2 Bft) SW 0.00 h 100 W/m -4.4 C -3.7 C 9.7 km/h (2 Bft)
06.01.2010 13:00 -1.7 C 81 % 1002.6 hPa 0.0 l/m 6.4 km/h (2 Bft) SW 0.00 h 51 W/m -4.5 C -4.0 C 9.5 km/h (2 Bft)
06.01.2010 14:00 -1.5 C 81 % 1002.6 hPa 0.0 l/m 4.1 km/h (1 Bft) W-SW 0.00 h 62 W/m -4.4 C -2.5 C 6.9 km/h (2 Bft)
06.01.2010 15:00 -1.3 C 80 % 1002.9 hPa 0.0 l/m 2.4 km/h (1 Bft) SW 0.00 h 31 W/m -4.3 C -1.4 C 4.8 km/h (1 Bft)
06.01.2010 16:00 -1.4 C 80 % 1003.3 hPa 0.0 l/m 3.6 km/h (1 Bft) W-SW 0.00 h 13 W/m -4.5 C -2.1 C 6.2 km/h (2 Bft)
06.01.2010 17:00 -1.6 C 80 % 1003.8 hPa 0.0 l/m 1.0 km/h (0 Bft) S-SO 0.00 h 0 W/m -4.6 C -1.7 C 2.4 km/h (1 Bft)
06.01.2010 18:00 -1.8 C 81 % 1004.1 hPa 0.0 l/m 0.8 km/h (0 Bft) W 0.00 h 0 W/m -4.6 C -1.8 C 2.1 km/h (1 Bft)
06.01.2010 19:00 -1.9 C 81 % 1004.6 hPa 0.0 l/m 0.3 km/h (0 Bft) W 0.00 h 0 W/m -4.7 C -1.9 C 1.0 km/h (0 Bft)
06.01.2010 20:00 -2.0 C 82 % 1004.9 hPa 0.0 l/m 0.7 km/h (0 Bft) W 0.00 h 0 W/m -4.7 C -2.0 C 1.7 km/h (1 Bft)
06.01.2010 21:00 -2.1 C 84 % 1005.1 hPa 0.0 l/m 0.1 km/h (0 Bft) SO 0.00 h 0 W/m -4.4 C -2.1 C 0.6 km/h (0 Bft)
06.01.2010 22:00 -2.1 C 85 % 1005.4 hPa 0.0 l/m 0.2 km/h (0 Bft) S-SO 0.00 h 0 W/m -4.3 C -2.1 C 0.6 km/h (0 Bft)
06.01.2010 23:00 -2.5 C 86 % 1005.8 hPa 0.0 l/m 0.8 km/h (0 Bft) S-SO 0.00 h 0 W/m -4.5 C -2.5 C 1.8 km/h (1 Bft)
07.01.2010 00:00 -2.4 C 87 % 1006.0 hPa 0.0 l/m 1.3 km/h (1 Bft) S-SO 0.00 h 0 W/m -4.2 C -2.4 C 3.2 km/h (1 Bft)
07.01.2010 01:00 -2.2 C 86 % 1006.1 hPa 0.0 l/m 0.1 km/h (0 Bft) S 0.00 h 0 W/m -4.2 C -2.2 C 0.7 km/h (0 Bft)
07.01.2010 02:00 -2.2 C 86 % 1006.5 hPa 0.0 l/m 0.2 km/h (0 Bft) S 0.00 h 0 W/m -4.2 C -2.2 C 0.7 km/h (0 Bft)
07.01.2010 03:00 -3.1 C 86 % 1006.6 hPa 0.0 l/m 3.2 km/h (1 Bft) S 0.00 h 0 W/m -5.1 C -3.3 C 4.6 km/h (1 Bft)
07.01.2010 04:00 -4.1 C 88 % 1006.7 hPa 0.0 l/m 4.2 km/h (1 Bft) O-SO 0.00 h 0 W/m -5.8 C -5.2 C 5.7 km/h (1 Bft)
07.01.2010 05:00 -4.7 C 88 % 1006.9 hPa 0.0 l/m 1.1 km/h (1 Bft) O-SO 0.00 h 0 W/m -6.3 C -5.0 C 2.0 km/h (1 Bft)
07.01.2010 06:00 -5.1 C 90 % 1007.3 hPa 0.0 l/m 0.0 km/h (0 Bft) N 0.00 h 0 W/m -6.5 C -5.1 C 0.1 km/h (0 Bft)
07.01.2010 07:00 -4.6 C 91 % 1007.7 hPa 0.0 l/m 0.9 km/h (0 Bft) O-SO 0.00 h 0 W/m -5.9 C -4.6 C 1.5 km/h (1 Bft)
07.01.2010 08:00 -4.2 C 92 % 1008.1 hPa 0.0 l/m 0.1 km/h (0 Bft) O-SO 0.00 h 13 W/m -5.4 C -4.2 C 0.1 km/h (0 Bft)
07.01.2010 09:00 -3.5 C 92 % 1008.6 hPa 0.0 l/m 0.0 km/h (0 Bft) N 0.00 h 36 W/m -4.6 C -3.5 C 0.0 km/h (0 Bft)
07.01.2010 10:00 -2.7 C 92 % 1009.0 hPa 0.0 l/m 0.3 km/h (0 Bft) O-SO 0.05 h 103 W/m -3.8 C -2.7 C 1.2 km/h (1 Bft)
07.01.2010 11:00 -1.6 C 89 % 1009.2 hPa 0.0 l/m 0.6 km/h (0 Bft) O-NO 0.78 h 204 W/m -3.2 C -1.6 C 1.9 km/h (1 Bft)
07.01.2010 12:00 -0.6 C 82 % 1009.0 hPa 0.0 l/m 0.9 km/h (0 Bft) SO 0.62 h 195 W/m -3.3 C -0.7 C 2.3 km/h (1 Bft)
07.01.2010 13:00 -0.3 C 79 % 1008.6 hPa 0.0 l/m 1.1 km/h (1 Bft) O-SO 0.27 h 156 W/m -3.6 C -0.4 C 2.7 km/h (1 Bft)
07.01.2010 14:00 0.0 C 77 % 1008.5 hPa 0.0 l/m 0.1 km/h (0 Bft) O-SO 0.00 h 95 W/m -3.4 C 0.0 C 0.8 km/h (0 Bft)
07.01.2010 15:00 0.1 C 77 % 1008.9 hPa 0.0 l/m 0.1 km/h (0 Bft) N-NO 0.00 h 47 W/m -3.4 C 0.1 C 0.6 km/h (0 Bft)
07.01.2010 16:00 -0.2 C 77 % 1009.4 hPa 0.0 l/m 0.0 km/h (0 Bft) N 0.02 h 17 W/m -3.6 C -0.2 C 0.0 km/h (0 Bft)
07.01.2010 17:00 -0.5 C 79 % 1010.0 hPa 0.0 l/m 0.1 km/h (0 Bft) N-NO 0.00 h 0 W/m -3.8 C -0.5 C 0.2 km/h (0 Bft)
07.01.2010 18:00 -1.0 C 82 % 1010.3 hPa 0.0 l/m 0.3 km/h (0 Bft) N-NO 0.00 h 0 W/m -3.7 C -1.0 C 0.8 km/h (0 Bft)
07.01.2010 19:00 -1.3 C 84 % 1010.6 hPa 0.0 l/m 0.1 km/h (0 Bft) N-NO 0.00 h 0 W/m -3.7 C -1.3 C 0.4 km/h (0 Bft)
07.01.2010 20:00 -1.5 C 85 % 1010.9 hPa 0.0 l/m 0.0 km/h (0 Bft) N-NO 0.00 h 0 W/m -3.7 C -1.5 C 0.2 km/h (0 Bft)
07.01.2010 21:00 -1.8 C 86 % 1011.0 hPa 0.0 l/m 0.2 km/h (0 Bft) N-NO 0.00 h 0 W/m -3.8 C -1.8 C 0.3 km/h (0 Bft)
07.01.2010 22:00 -2.2 C 87 % 1010.9 hPa 0.0 l/m 0.0 km/h (0 Bft) N-NO 0.00 h 0 W/m -4.0 C -2.2 C 0.3 km/h (0 Bft)
07.01.2010 23:00 -2.3 C 87 % 1010.8 hPa 0.0 l/m 0.2 km/h (0 Bft) N-NO 0.00 h 0 W/m -4.1 C -2.3 C 0.4 km/h (0 Bft)
08.01.2010 00:00 -2.3 C 88 % 1010.7 hPa 0.0 l/m 0.0 km/h (0 Bft) N-NO 0.00 h 0 W/m -4.0 C -2.3 C 0.4 km/h (0 Bft)
08.01.2010 01:00 -2.2 C 88 % 1010.2 hPa 0.0 l/m 0.1 km/h (0 Bft) N-NO 0.00 h 0 W/m -3.9 C -2.2 C 0.7 km/h (0 Bft)
08.01.2010 02:00 -2.2 C 88 % 1009.9 hPa 0.0 l/m 0.0 km/h (0 Bft) N 0.00 h 0 W/m -3.9 C -2.2 C 0.3 km/h (0 Bft)
08.01.2010 03:00 -2.0 C 88 % 1009.9 hPa 0.0 l/m 0.6 km/h (0 Bft) N-NO 0.00 h 0 W/m -3.7 C -2.0 C 2.2 km/h (1 Bft)
08.01.2010 04:00 -1.9 C 88 % 1009.8 hPa 0.0 l/m 0.2 km/h (0 Bft) N-NW 0.00 h 0 W/m -3.6 C -1.9 C 0.9 km/h (0 Bft)
08.01.2010 05:00 -1.7 C 88 % 1009.3 hPa 0.0 l/m 2.1 km/h (1 Bft) N-NO 0.00 h 0 W/m -3.3 C -1.8 C 5.0 km/h (1 Bft)
08.01.2010 06:00 -1.5 C 89 % 1008.7 hPa 0.2 l/m 1.6 km/h (1 Bft) NO 0.00 h 0 W/m -3.1 C -1.6 C 4.1 km/h (1 Bft)
08.01.2010 07:00 -1.5 C 90 % 1008.5 hPa 0.2 l/m 1.7 km/h (1 Bft) N-NO 0.00 h 0 W/m -2.9 C -1.7 C 4.4 km/h (1 Bft)
08.01.2010 08:00 -1.5 C 90 % 1008.1 hPa 0.2 l/m 2.7 km/h (1 Bft) N-NO 0.00 h 10 W/m -2.9 C -1.9 C 6.8 km/h (2 Bft)
08.01.2010 09:00 -1.4 C 85 % 1007.9 hPa 0.4 l/m 6.4 km/h (2 Bft) N-NO 0.00 h 21 W/m -3.6 C -3.5 C 13.5 km/h (3 Bft)
08.01.2010 10:00 -1.0 C 78 % 1007.4 hPa 0.0 l/m 3.0 km/h (1 Bft) O 0.00 h 20 W/m -4.3 C -1.5 C 6.6 km/h (2 Bft)
08.01.2010 11:00 -0.7 C 77 % 1006.7 hPa 0.2 l/m 2.8 km/h (1 Bft) N 0.00 h 26 W/m -4.2 C -1.2 C 6.1 km/h (2 Bft)
08.01.2010 12:00 -0.3 C 75 % 1005.7 hPa 0.0 l/m 2.7 km/h (1 Bft) O-SO 0.00 h 27 W/m -4.3 C -0.7 C 6.6 km/h (2 Bft)
08.01.2010 13:00 -0.0 C 74 % 1004.7 hPa 0.0 l/m 3.2 km/h (1 Bft) O 0.00 h 22 W/m -4.1 C -0.6 C 7.0 km/h (2 Bft)
08.01.2010 14:00 -0.1 C 74 % 1004.3 hPa 0.0 l/m 2.6 km/h (1 Bft) N-NO 0.00 h 11 W/m -4.1 C -0.6 C 5.6 km/h (1 Bft)
08.01.2010 15:00 -0.6 C 75 % 1004.5 hPa 0.0 l/m 4.2 km/h (1 Bft) N 0.00 h 6 W/m -4.5 C -1.8 C 8.5 km/h (2 Bft)
08.01.2010 16:00 -1.1 C 76 % 1005.1 hPa 0.0 l/m 5.9 km/h (2 Bft) N 0.00 h 0 W/m -4.9 C -3.0 C 11.3 km/h (2 Bft)
08.01.2010 17:00 -1.8 C 77 % 1005.6 hPa 0.0 l/m 6.4 km/h (2 Bft) N 0.00 h 0 W/m -5.2 C -3.9 C 11.7 km/h (2 Bft)
08.01.2010 18:00 -2.2 C 77 % 1006.0 hPa 0.0 l/m 4.8 km/h (1 Bft) N 0.00 h 0 W/m -5.7 C -3.6 C 9.7 km/h (2 Bft)
08.01.2010 19:00 -2.4 C 75 % 1006.3 hPa 0.2 l/m 5.3 km/h (1 Bft) N-NO 0.00 h 0 W/m -6.1 C -4.0 C 10.3 km/h (2 Bft)
08.01.2010 20:00 -2.7 C 78 % 1006.3 hPa 0.0 l/m 6.2 km/h (2 Bft) N-NO 0.00 h 0 W/m -6.0 C -4.9 C 12.0 km/h (2 Bft)
08.01.2010 21:00 -3.2 C 82 % 1006.4 hPa 0.0 l/m 4.9 km/h (1 Bft) N 0.00 h 0 W/m -5.8 C -4.7 C 9.7 km/h (2 Bft)
08.01.2010 22:00 -3.3 C 81 % 1006.1 hPa 0.0 l/m 3.9 km/h (1 Bft) N-NO 0.00 h 0 W/m -6.1 C -4.2 C 8.7 km/h (2 Bft)
08.01.2010 23:00 -3.0 C 74 % 1006.3 hPa 0.0 l/m 5.9 km/h (2 Bft) N-NO 0.00 h 0 W/m -6.9 C -5.1 C 11.7 km/h (2 Bft)
09.01.2010 00:00 -3.1 C 72 % 1006.5 hPa 0.0 l/m 5.7 km/h (1 Bft) N-NO 0.00 h 0 W/m -7.5 C -4.9 C 10.9 km/h (2 Bft)
09.01.2010 01:00 -3.3 C 72 % 1006.2 hPa 0.0 l/m 5.2 km/h (1 Bft) N-NO 0.00 h 0 W/m -7.5 C -5.0 C 10.2 km/h (2 Bft)
09.01.2010 02:00 -3.5 C 73 % 1006.4 hPa 0.0 l/m 7.7 km/h (2 Bft) N-NO 0.00 h 0 W/m -7.6 C -6.5 C 15.2 km/h (3 Bft)
09.01.2010 03:00 -3.7 C 74 % 1006.4 hPa 0.0 l/m 6.1 km/h (2 Bft) NO 0.00 h 0 W/m -7.6 C -5.9 C 13.2 km/h (3 Bft)
09.01.2010 04:00 -3.9 C 75 % 1006.5 hPa 0.0 l/m 4.1 km/h (1 Bft) N-NO 0.00 h 0 W/m -7.7 C -5.0 C 9.3 km/h (2 Bft)
09.01.2010 05:00 -4.1 C 76 % 1006.2 hPa 0.0 l/m 4.7 km/h (1 Bft) N-NO 0.00 h 0 W/m -7.7 C -5.6 C 11.2 km/h (2 Bft)
09.01.2010 06:00 -4.3 C 77 % 1005.9 hPa 0.0 l/m 6.1 km/h (2 Bft) N-NO 0.00 h 0 W/m -7.7 C -6.4 C 12.7 km/h (3 Bft)
09.01.2010 07:00 -4.4 C 78 % 1005.5 hPa 0.0 l/m 6.0 km/h (2 Bft) N-NO 0.00 h 0 W/m -7.7 C -6.8 C 12.2 km/h (2 Bft)
09.01.2010 08:00 -4.3 C 78 % 1005.8 hPa 0.0 l/m 6.4 km/h (2 Bft) N-NO 0.00 h 6 W/m -7.6 C -6.8 C 13.1 km/h (3 Bft)
09.01.2010 09:00 -4.3 C 78 % 1005.9 hPa 0.0 l/m 7.3 km/h (2 Bft) N-NO 0.00 h 16 W/m -7.6 C -7.4 C 14.2 km/h (3 Bft)
09.01.2010 10:00 -4.1 C 77 % 1006.1 hPa 0.0 l/m 5.0 km/h (1 Bft) N-NO 0.00 h 30 W/m -7.5 C -5.9 C 9.2 km/h (2 Bft)
09.01.2010 11:00 -3.8 C 77 % 1005.7 hPa 0.0 l/m 4.5 km/h (1 Bft) N-NO 0.00 h 42 W/m -7.3 C -5.2 C 8.6 km/h (2 Bft)
09.01.2010 12:00 -3.6 C 75 % 1005.6 hPa 0.0 l/m 2.2 km/h (1 Bft) NO 0.00 h 35 W/m -7.3 C -3.9 C 5.5 km/h (1 Bft)
09.01.2010 13:00 -3.5 C 76 % 1005.0 hPa 0.0 l/m 1.7 km/h (1 Bft) NO 0.00 h 36 W/m -7.1 C -3.8 C 4.1 km/h (1 Bft)
09.01.2010 14:00 -3.3 C 75 % 1005.0 hPa 0.0 l/m 2.5 km/h (1 Bft) N 0.00 h 34 W/m -7.1 C -3.8 C 5.4 km/h (1 Bft)
09.01.2010 15:00 -3.4 C 75 % 1005.2 hPa 0.0 l/m 1.7 km/h (1 Bft) NO 0.00 h 16 W/m -7.2 C -3.5 C 4.6 km/h (1 Bft)
09.01.2010 16:00 -3.6 C 76 % 1005.6 hPa 0.0 l/m 2.2 km/h (1 Bft) N-NO 0.00 h 5 W/m -7.2 C -3.8 C 5.1 km/h (1 Bft)
09.01.2010 17:00 -3.7 C 78 % 1005.7 hPa 0.0 l/m 3.8 km/h (1 Bft) N-NO 0.00 h 0 W/m -7.0 C -4.6 C 7.6 km/h (2 Bft)
09.01.2010 18:00 -3.8 C 78 % 1005.8 hPa 0.0 l/m 3.5 km/h (1 Bft) N-NO 0.00 h 0 W/m -7.0 C -4.6 C 7.3 km/h (2 Bft)
09.01.2010 19:00 -4.0 C 81 % 1006.1 hPa 0.0 l/m 3.5 km/h (1 Bft) N-NO 0.00 h 0 W/m -6.8 C -4.9 C 7.4 km/h (2 Bft)
09.01.2010 20:00 -4.1 C 84 % 1006.4 hPa 0.2 l/m 1.1 km/h (1 Bft) NW 0.00 h 0 W/m -6.4 C -4.1 C 2.5 km/h (1 Bft)
09.01.2010 21:00 -4.2 C 86 % 1006.7 hPa 0.2 l/m 0.1 km/h (0 Bft) NW 0.00 h 0 W/m -6.1 C -4.2 C 0.7 km/h (0 Bft)
09.01.2010 22:00 -4.2 C 87 % 1006.9 hPa 0.4 l/m 0.1 km/h (0 Bft) NW 0.00 h 0 W/m -6.0 C -4.2 C 0.6 km/h (0 Bft)
09.01.2010 23:00 -4.3 C 88 % 1007.3 hPa 0.4 l/m 0.1 km/h (0 Bft) NW 0.00 h 0 W/m -5.9 C -4.3 C 0.3 km/h (0 Bft)
10.01.2010 00:00 -4.3 C 89 % 1007.5 hPa 0.0 l/m 0.1 km/h (0 Bft) NW 0.00 h 0 W/m -5.9 C -4.3 C 0.2 km/h (0 Bft)
10.01.2010 01:00 -4.4 C 90 % 1007.7 hPa 0.2 l/m 0.0 km/h (0 Bft) N 0.00 h 0 W/m -5.9 C -4.4 C 0.0 km/h (0 Bft)
10.01.2010 02:00 -4.7 C 90 % 1008.1 hPa 0.2 l/m 0.0 km/h (0 Bft) N 0.00 h 0 W/m -6.1 C -4.7 C 0.2 km/h (0 Bft)
10.01.2010 03:00 -5.0 C 90 % 1008.7 hPa 0.0 l/m 0.0 km/h (0 Bft) N 0.00 h 0 W/m -6.4 C -5.0 C 0.0 km/h (0 Bft)
10.01.2010 04:00 -4.8 C 90 % 1009.2 hPa 0.0 l/m 0.2 km/h (0 Bft) NW 0.00 h 0 W/m -6.2 C -4.8 C 0.9 km/h (0 Bft)
10.01.2010 05:00 -4.6 C 90 % 1009.6 hPa 0.0 l/m 0.3 km/h (0 Bft) NW 0.00 h 0 W/m -5.9 C -4.6 C 1.4 km/h (1 Bft)
10.01.2010 06:00 -4.5 C 90 % 1010.1 hPa 0.2 l/m 0.2 km/h (0 Bft) NW 0.00 h 0 W/m -6.0 C -4.5 C 0.7 km/h (0 Bft)
10.01.2010 07:00 -4.6 C 89 % 1010.7 hPa 0.0 l/m 0.0 km/h (0 Bft) N 0.00 h 0 W/m -6.2 C -4.6 C 0.0 km/h (0 Bft)
10.01.2010 08:00 -4.6 C 89 % 1011.4 hPa 0.0 l/m 0.0 km/h (0 Bft) NW 0.00 h 6 W/m -6.1 C -4.6 C 0.3 km/h (0 Bft)
10.01.2010 09:00 -4.1 C 89 % 1012.3 hPa 0.0 l/m 0.2 km/h (0 Bft) NW 0.00 h 15 W/m -5.6 C -4.1 C 0.9 km/h (0 Bft)
10.01.2010 10:00 -3.5 C 87 % 1012.9 hPa 0.2 l/m 1.9 km/h (1 Bft) W 0.00 h 28 W/m -5.4 C -3.8 C 4.1 km/h (1 Bft)
10.01.2010 11:00 -2.9 C 83 % 1013.4 hPa 0.0 l/m 3.1 km/h (1 Bft) W-SW 0.00 h 45 W/m -5.4 C -3.5 C 5.6 km/h (1 Bft)
10.01.2010 12:00 -2.7 C 76 % 1013.8 hPa 0.0 l/m 5.9 km/h (2 Bft) W-SW 0.00 h 49 W/m -6.3 C -4.8 C 9.5 km/h (2 Bft)
10.01.2010 13:00 -2.7 C 73 % 1014.0 hPa 0.0 l/m 5.3 km/h (1 Bft) W 0.00 h 37 W/m -6.8 C -4.5 C 8.3 km/h (2 Bft)
10.01.2010 14:00 -2.7 C 74 % 1014.2 hPa 0.0 l/m 4.2 km/h (1 Bft) W-SW 0.00 h 23 W/m -6.7 C -3.7 C 6.5 km/h (2 Bft)
10.01.2010 15:00 -2.8 C 75 % 1014.9 hPa 0.0 l/m 5.0 km/h (1 Bft) W 0.00 h 15 W/m -6.7 C -4.4 C 7.6 km/h (2 Bft)
10.01.2010 16:00 -3.0 C 76 % 1015.4 hPa 0.0 l/m 3.2 km/h (1 Bft) W 0.00 h 5 W/m -6.5 C -3.3 C 5.5 km/h (1 Bft)
10.01.2010 17:00 -3.2 C 75 % 1015.9 hPa 0.0 l/m 2.4 km/h (1 Bft) W-NW 0.00 h 0 W/m -7.0 C -3.5 C 4.4 km/h (1 Bft)
10.01.2010 18:00 -3.3 C 76 % 1016.2 hPa 0.0 l/m 2.8 km/h (1 Bft) W-NW 0.00 h 0 W/m -6.9 C -3.5 C 4.8 km/h (1 Bft)
10.01.2010 19:00 -3.3 C 77 % 1016.5 hPa 0.0 l/m 2.6 km/h (1 Bft) W-NW 0.00 h 0 W/m -6.8 C -3.5 C 4.7 km/h (1 Bft)
10.01.2010 20:00 -3.4 C 77 % 1016.6 hPa 0.0 l/m 0.8 km/h (0 Bft) W-NW 0.00 h 0 W/m -6.8 C -3.4 C 2.4 km/h (1 Bft)
10.01.2010 21:00 -3.5 C 79 % 1016.8 hPa 0.0 l/m 0.6 km/h (0 Bft) W-NW 0.00 h 0 W/m -6.7 C -3.5 C 2.0 km/h (1 Bft)
10.01.2010 22:00 -3.7 C 80 % 1016.7 hPa 0.0 l/m 0.8 km/h (0 Bft) W-NW 0.00 h 0 W/m -6.6 C -3.7 C 1.9 km/h (1 Bft)
10.01.2010 23:00 -4.0 C 82 % 1016.8 hPa 0.0 l/m 1.5 km/h (1 Bft) SO 0.00 h 0 W/m -6.7 C -4.1 C 3.0 km/h (1 Bft)
Min-Datum _ 04.01.10 04.01.10 06.01.10 - 04.01.10 - - - 04.01.10 05.01.10 04.01.10
_ Min-Zeit 08:00 16:20 05:15 - 00:00 - - - 07:17 00:32 00:02
Minimum _ -9.3 C 64 % 1001.0 hPa - 0.0 km/h (0 Bft) - - - -11.0 C -11.2 C 0.0 km/h (0 Bft)
Max-Datum _ 07.01.10 07.01.10 04.01.10 08.01.10 08.01.10 - 04.01.10 05.01.10 07.01.10 07.01.10 09.01.10
_ Max-Zeit 14:25 09:50 00:00 09:07 22:51 - 08:27 11:33 11:50 14:24 02:18
Maximum _ 0.1 C 93 % 1019.7 hPa 0.4 l/m 15.6 km/h
N-NO (3 Bft)
- 0.02 h 318 W/m -2.8 C 0.1 C 31.3 km/h
N-NO (5 Bft)
Durchschnitt _ -3.7 C 82 % 1008.6 hPa #3.6 l/m 1.9 km/h (1 Bft) N-NO #7:03 h 22 W/m -6.3 C -4.2 C 3.9 km/h (1 Bft)
© Kaiko 2010